Time;durP1;ratioP1;P1;durP2;ratioP2;P2;SDS_P1;SDS_P2;PMS_P1;PMS_P2;Temp;Humidity;BMP_temperature;BMP_pressure;BME280_temperature;BME280_humidity;BME280_pressure;Samples;Min_cycle;Max_cycle;Signal;HPM_P1;HPM_P2
2022/08/02 00:02:27;;;;;;;3.93;2.80;;;20.30;99.90;;;;;;4993977;28;20473;-81
2022/08/02 00:04:53;;;;;;;2.63;2.20;;;20.30;99.90;;;;;;4988827;28;20471;-81
2022/08/02 00:07:20;;;;;;;3.60;2.97;;;20.20;99.90;;;;;;4985283;28;20503;-81
2022/08/02 00:09:46;;;;;;;4.17;2.80;;;20.30;99.90;;;;;;4984936;28;20511;-81
2022/08/02 00:12:13;;;;;;;6.23;2.97;;;20.20;99.90;;;;;;4984711;28;20440;-81
2022/08/02 00:14:40;;;;;;;3.47;3.03;;;20.20;99.90;;;;;;4983846;28;20472;-81
2022/08/02 00:17:07;;;;;;;4.27;3.60;;;20.20;99.90;;;;;;4990652;28;20424;-81
2022/08/02 00:19:35;;;;;;;4.47;3.90;;;20.20;99.90;;;;;;4998716;28;20443;-81
2022/08/02 00:22:02;;;;;;;5.00;3.57;;;20.20;99.90;;;;;;4990676;28;20577;-81
2022/08/02 00:24:28;;;;;;;5.90;4.37;;;20.20;99.90;;;;;;4989548;28;20471;-81
2022/08/02 00:26:55;;;;;;;3.90;3.13;;;20.20;99.90;;;;;;4989112;28;20471;-81
2022/08/02 00:29:22;;;;;;;5.47;4.40;;;20.20;99.90;;;;;;4990349;28;20828;-81
2022/08/02 00:31:48;;;;;;;4.40;3.20;;;20.30;99.90;;;;;;4992038;28;20859;-81
2022/08/02 00:34:15;;;;;;;4.60;3.37;;;20.30;99.90;;;;;;4986577;28;20464;-81
2022/08/02 00:36:43;;;;;;;4.00;2.97;;;20.30;99.90;;;;;;4987117;28;20852;-81
2022/08/02 00:39:09;;;;;;;4.67;3.30;;;20.20;99.90;;;;;;4982569;28;20807;-81
2022/08/02 00:41:45;;;;;;;4.00;3.17;;;20.10;99.90;;;;;;4986266;28;20497;-81
2022/08/02 00:44:11;;;;;;;5.17;3.37;;;20.10;99.90;;;;;;4979800;28;20472;-82
2022/08/02 00:46:38;;;;;;;4.90;3.00;;;20.10;99.90;;;;;;4981194;28;20441;-82
2022/08/02 00:49:05;;;;;;;4.33;3.60;;;20.10;99.90;;;;;;4981102;28;20452;-83
2022/08/02 00:51:32;;;;;;;4.00;3.50;;;20.10;99.90;;;;;;4981393;28;20436;-82
2022/08/02 00:54:00;;;;;;;5.13;3.97;;;20.10;99.90;;;;;;4988073;28;20468;-82
2022/08/02 00:56:26;;;;;;;6.00;3.20;;;20.10;99.90;;;;;;4990377;28;20441;-82
2022/08/02 00:58:53;;;;;;;7.03;4.10;;;20.20;99.90;;;;;;4991365;28;20452;-82
2022/08/02 01:01:20;;;;;;;5.10;3.03;;;20.10;99.90;;;;;;4992789;28;20483;-82
2022/08/02 01:03:47;;;;;;;3.70;3.20;;;20.10;99.90;;;;;;5000731;28;20519;-82
2022/08/02 01:06:14;;;;;;;3.90;3.17;;;20.10;99.90;;;;;;4988718;28;20452;-82
2022/08/02 01:08:41;;;;;;;3.10;2.50;;;20.10;99.90;;;;;;4985112;28;20449;-82
2022/08/02 01:11:09;;;;;;;3.10;2.63;;;20.20;99.90;;;;;;4990220;28;20433;-82
2022/08/02 01:13:36;;;;;;;4.67;3.30;;;20.20;99.90;;;;;;4991296;28;20781;-81
2022/08/02 01:16:11;;;;;;;3.87;3.47;;;20.10;99.90;;;;;;4984058;28;20468;-82
2022/08/02 01:18:41;;;;;;;3.70;2.97;;;20.10;99.90;;;;;;4981719;28;20538;-82
2022/08/02 01:21:35;;;;;;;3.93;2.63;;;20.00;99.90;;;;;;4986066;28;20488;-82
2022/08/02 01:24:19;;;;;;;5.07;3.50;;;20.00;99.90;;;;;;4992818;28;20468;-82
2022/08/02 01:26:54;;;;;;;5.07;3.53;;;20.00;99.90;;;;;;4986442;28;20440;-81
2022/08/02 01:29:26;;;;;;;6.20;3.80;;;20.00;99.90;;;;;;4990297;28;20436;-81
2022/08/02 01:31:58;;;;;;;5.90;4.63;;;20.00;99.90;;;;;;4982479;28;20437;-82
2022/08/02 01:34:32;;;;;;;5.83;4.40;;;20.00;99.90;;;;;;4982110;28;20468;-82
2022/08/02 01:37:03;;;;;;;4.20;3.60;;;20.00;99.90;;;;;;4982914;28;20865;-82
2022/08/02 01:39:33;;;;;;;4.30;3.37;;;20.00;99.90;;;;;;4989635;28;20447;-82
2022/08/02 01:42:02;;;;;;;4.87;3.10;;;20.00;99.90;;;;;;4985253;28;20480;-82
2022/08/02 01:44:34;;;;;;;3.50;3.20;;;19.90;99.90;;;;;;4991380;28;20511;-82
2022/08/02 01:47:04;;;;;;;4.30;3.40;;;20.00;99.90;;;;;;4992718;28;21223;-82
2022/08/02 01:49:33;;;;;;;3.90;3.50;;;19.90;99.90;;;;;;4991762;28;20441;-82
2022/08/02 01:54:50;;;;;;;4.30;3.23;;;20.10;99.90;;;;;;4990355;28;20459;-82
2022/08/02 01:57:20;;;;;;;3.30;3.00;;;20.10;99.90;;;;;;4989465;28;20441;-82
2022/08/02 01:59:50;;;;;;;3.57;3.27;;;20.10;99.90;;;;;;4991104;28;20446;-82
2022/08/02 02:02:21;;;;;;;3.13;2.60;;;20.10;99.90;;;;;;4993789;28;20514;-82
2022/08/02 02:04:49;;;;;;;3.20;2.50;;;20.00;99.90;;;;;;4996380;28;21054;-82
2022/08/02 02:07:18;;;;;;;4.60;3.30;;;20.10;99.90;;;;;;4991178;28;20440;-82
2022/08/02 02:09:46;;;;;;;3.40;3.00;;;20.20;99.90;;;;;;4996088;28;20428;-81
2022/08/02 02:12:14;;;;;;;3.50;2.67;;;20.20;99.90;;;;;;5002786;28;20432;-81
2022/08/02 02:14:43;;;;;;;3.23;2.73;;;20.20;99.90;;;;;;4991290;28;20492;-82
2022/08/02 02:17:13;;;;;;;3.80;2.80;;;20.10;99.90;;;;;;4983429;28;20447;-82
2022/08/02 02:19:42;;;;;;;3.40;3.10;;;20.10;99.90;;;;;;4989522;28;20424;-82
2022/08/02 02:22:08;;;;;;;5.93;3.70;;;20.00;99.90;;;;;;4995152;28;20468;-82
2022/08/02 02:24:35;;;;;;;3.93;3.10;;;20.00;99.90;;;;;;4997020;28;20452;-82
2022/08/02 02:27:04;;;;;;;8.57;4.03;;;20.00;99.90;;;;;;4994690;28;20475;-82
2022/08/02 02:29:32;;;;;;;4.07;2.90;;;20.10;99.90;;;;;;4993367;28;20496;-82
2022/08/02 02:32:00;;;;;;;4.87;4.00;;;20.10;99.90;;;;;;4990299;28;20429;-82
2022/08/02 02:34:33;;;;;;;5.27;3.60;;;20.00;99.90;;;;;;4988371;28;20479;-82
2022/08/02 02:37:03;;;;;;;10.63;5.10;;;19.90;99.90;;;;;;4975341;28;20440;-82
2022/08/02 02:39:32;;;;;;;9.30;6.37;;;19.90;99.90;;;;;;4984932;28;20444;-82
2022/08/02 02:42:02;;;;;;;12.10;7.00;;;19.90;99.90;;;;;;4998094;28;20568;-82
2022/08/02 02:44:31;;;;;;;13.83;6.97;;;19.90;99.90;;;;;;5001235;28;20507;-82
2022/08/02 02:46:59;;;;;;;8.30;5.97;;;19.80;99.90;;;;;;4996566;28;20880;-82
2022/08/02 02:49:27;;;;;;;7.63;6.67;;;19.80;99.90;;;;;;4997134;28;20441;-82
2022/08/02 02:51:57;;;;;;;8.73;6.90;;;19.80;99.90;;;;;;4985639;28;20467;-82
2022/08/02 02:54:25;;;;;;;6.80;5.70;;;19.70;99.90;;;;;;4985277;28;20452;-82
2022/08/02 02:56:53;;;;;;;6.07;5.47;;;19.70;99.90;;;;;;4986247;28;20930;-82
2022/08/02 02:59:20;;;;;;;8.70;5.40;;;19.70;99.90;;;;;;4985745;28;20937;-82
2022/08/02 03:01:46;;;;;;;5.57;5.07;;;19.70;99.90;;;;;;5000781;28;20482;-82
2022/08/02 03:04:15;;;;;;;6.00;4.50;;;19.70;99.90;;;;;;4999020;28;20471;-82
2022/08/02 03:06:42;;;;;;;7.80;4.50;;;19.60;99.90;;;;;;4993404;28;20933;-82
2022/08/02 03:09:10;;;;;;;6.70;4.30;;;19.50;99.90;;;;;;4985096;28;20473;-82
2022/08/02 03:11:38;;;;;;;7.17;4.37;;;19.50;99.90;;;;;;4983618;28;20760;-82
2022/08/02 03:14:08;;;;;;;5.97;3.73;;;19.50;99.90;;;;;;4984758;28;20484;-82
2022/08/02 03:16:42;;;;;;;7.37;4.57;;;19.40;99.90;;;;;;4984871;28;20448;-82
2022/08/02 03:19:09;;;;;;;6.27;4.33;;;19.40;99.90;;;;;;4984379;28;20445;-82
2022/08/02 03:21:36;;;;;;;6.00;4.50;;;19.40;99.90;;;;;;4984751;28;20938;-82
2022/08/02 03:24:02;;;;;;;6.27;4.27;;;19.40;99.90;;;;;;4995120;28;20482;-82
2022/08/02 03:26:30;;;;;;;5.50;4.67;;;19.40;99.90;;;;;;4993790;28;20449;-82
2022/08/02 03:28:57;;;;;;;6.17;3.90;;;19.50;99.90;;;;;;4994994;28;20452;-82
2022/08/02 03:31:24;;;;;;;5.97;4.20;;;19.40;99.90;;;;;;5002031;28;20490;-82
2022/08/02 03:33:51;;;;;;;4.67;4.27;;;19.40;99.90;;;;;;5001487;28;20463;-82
2022/08/02 03:36:20;;;;;;;5.50;4.50;;;19.30;99.90;;;;;;4995444;28;20537;-82
2022/08/02 03:38:49;;;;;;;7.27;4.77;;;19.30;99.90;;;;;;4996957;28;20447;-82
2022/08/02 03:41:18;;;;;;;5.60;4.77;;;19.20;99.90;;;;;;4993013;28;20436;-82
2022/08/02 03:43:48;;;;;;;5.67;4.93;;;19.20;99.90;;;;;;4988657;28;20514;-82
2022/08/02 03:46:17;;;;;;;6.90;5.63;;;19.30;99.90;;;;;;4986145;28;20996;-82
2022/08/02 03:48:44;;;;;;;6.30;5.20;;;19.20;99.90;;;;;;4984245;28;20517;-82
2022/08/02 03:51:11;;;;;;;6.40;4.73;;;19.20;99.90;;;;;;4984987;28;20850;-82
2022/08/02 03:53:39;;;;;;;10.00;5.30;;;19.20;99.90;;;;;;4984011;28;20435;-82
2022/08/02 03:56:06;;;;;;;9.63;6.37;;;19.10;99.90;;;;;;4984915;28;20463;-82
2022/08/02 03:58:33;;;;;;;11.00;5.40;;;19.20;99.90;;;;;;4996545;28;20467;-82
2022/08/02 04:01:01;;;;;;;5.80;5.20;;;19.10;99.90;;;;;;4993655;28;20796;-82
2022/08/02 04:03:28;;;;;;;6.77;5.80;;;19.10;99.90;;;;;;4989517;28;20483;-82
2022/08/02 04:05:55;;;;;;;8.10;5.37;;;19.00;99.90;;;;;;5006501;28;20428;-82
2022/08/02 04:08:22;;;;;;;6.30;5.50;;;19.10;99.90;;;;;;4988100;28;20436;-82
2022/08/02 04:13:35;;;;;;;6.13;5.53;;;19.00;99.90;;;;;;4995456;28;20423;-82
2022/08/02 04:16:10;;;;;;;7.77;6.00;;;19.00;99.90;;;;;;4997061;28;20459;-81
2022/08/02 04:18:43;;;;;;;6.33;5.10;;;19.10;99.90;;;;;;4997448;28;20447;-82
2022/08/02 04:21:14;;;;;;;6.50;5.43;;;19.10;99.90;;;;;;4989899;28;20443;-81
2022/08/02 04:23:43;;;;;;;8.93;5.90;;;19.10;99.90;;;;;;4983161;28;21056;-82
2022/08/02 04:26:11;;;;;;;6.53;4.77;;;19.20;99.90;;;;;;4995531;28;20440;-82
2022/08/02 04:28:38;;;;;;;7.30;5.20;;;19.20;99.90;;;;;;4984150;28;20464;-82
2022/08/02 04:31:07;;;;;;;18.40;6.07;;;19.20;99.90;;;;;;4983615;28;20441;-82
2022/08/02 04:33:35;;;;;;;6.80;5.20;;;19.20;99.90;;;;;;4994432;28;20443;-82
2022/08/02 04:36:02;;;;;;;5.20;4.70;;;19.20;99.90;;;;;;5004723;28;20437;-83
2022/08/02 04:38:29;;;;;;;6.43;5.50;;;19.20;99.90;;;;;;5000202;28;20439;-82
2022/08/02 04:40:56;;;;;;;6.77;6.10;;;19.30;99.90;;;;;;4999700;28;20435;-82
2022/08/02 04:43:23;;;;;;;5.30;4.80;;;19.20;99.90;;;;;;4982537;28;20475;-82
2022/08/02 04:45:52;;;;;;;5.37;4.87;;;19.30;99.90;;;;;;4998538;28;20448;-83
2022/08/02 04:48:22;;;;;;;8.40;5.20;;;19.30;99.90;;;;;;4997199;28;20444;-82
2022/08/02 04:50:49;;;;;;;5.87;5.27;;;19.40;99.90;;;;;;4998343;28;20463;-83
2022/08/02 04:53:16;;;;;;;5.50;4.53;;;19.50;99.90;;;;;;4996901;28;20919;-83
2022/08/02 04:55:42;;;;;;;7.40;4.70;;;19.50;99.90;;;;;;4998644;28;20474;-83
2022/08/02 04:58:09;;;;;;;5.60;4.33;;;19.60;99.90;;;;;;5002945;28;20451;-83
2022/08/02 05:00:36;;;;;;;11.40;4.90;;;19.60;99.90;;;;;;4992291;28;20436;-83
2022/08/02 05:03:02;;;;;;;7.50;4.33;;;19.60;99.90;;;;;;4983166;28;20476;-83
2022/08/02 05:05:30;;;;;;;10.60;5.23;;;19.70;99.90;;;;;;4983789;28;20464;-83
2022/08/02 05:07:58;;;;;;;11.43;4.53;;;19.80;99.90;;;;;;4982762;28;20436;-83
2022/08/02 05:10:25;;;;;;;7.47;4.77;;;20.00;99.90;;;;;;4982860;28;20969;-83
2022/08/02 05:12:52;;;;;;;8.07;5.43;;;20.30;99.90;;;;;;4983439;28;20429;-83
2022/08/02 05:15:18;;;;;;;8.23;5.77;;;20.60;99.90;;;;;;4983335;28;20465;-83
2022/08/02 05:17:46;;;;;;;12.80;5.27;;;20.80;99.90;;;;;;4983718;28;20448;-83
2022/08/02 05:20:13;;;;;;;8.83;5.07;;;20.90;99.90;;;;;;4985921;28;20515;-83
2022/08/02 05:22:42;;;;;;;7.27;5.50;;;21.00;99.90;;;;;;5005854;28;20482;-83
2022/08/02 05:25:10;;;;;;;6.50;5.30;;;21.20;99.90;;;;;;4984464;28;20483;-83
2022/08/02 05:27:36;;;;;;;6.43;5.80;;;21.40;99.90;;;;;;4990070;28;20456;-83
2022/08/02 05:30:04;;;;;;;8.47;5.90;;;21.60;99.90;;;;;;4983599;28;20442;-83
2022/08/02 05:32:31;;;;;;;9.60;4.97;;;21.80;99.90;;;;;;4982911;28;20437;-83
2022/08/02 05:34:59;;;;;;;7.03;6.33;;;22.10;99.90;;;;;;4982877;28;20468;-83
2022/08/02 05:37:26;;;;;;;10.20;5.97;;;22.50;99.90;;;;;;4983535;28;20441;-83
2022/08/02 05:39:54;;;;;;;8.17;5.47;;;22.70;99.90;;;;;;4981044;28;20440;-83
2022/08/02 05:42:21;;;;;;;9.60;6.47;;;23.00;99.90;;;;;;4996868;28;20534;-83
2022/08/02 05:44:47;;;;;;;12.70;6.17;;;23.00;99.90;;;;;;4997511;28;20459;-83
2022/08/02 05:47:14;;;;;;;12.37;6.67;;;22.90;99.90;;;;;;4997342;28;20444;-83
2022/08/02 05:49:41;;;;;;;7.40;5.77;;;23.00;99.90;;;;;;4998015;28;20456;-83
2022/08/02 05:52:14;;;;;;;6.03;4.90;;;23.20;99.90;;;;;;4980656;28;20444;-82
2022/08/02 05:54:48;;;;;;;7.03;6.27;;;23.60;99.90;;;;;;4980629;28;20471;-82
2022/08/02 05:57:26;;;;;;;9.90;5.80;;;23.90;99.90;;;;;;4991557;28;20454;-82
2022/08/02 06:00:03;;;;;;;5.80;5.20;;;24.10;99.90;;;;;;5001632;28;20435;-83
2022/08/02 06:02:35;;;;;;;6.33;4.53;;;24.50;99.90;;;;;;4977480;28;20480;-83
2022/08/02 06:05:07;;;;;;;7.10;4.60;;;25.20;99.90;;;;;;4978353;28;20663;-83
2022/08/02 06:07:36;;;;;;;6.30;4.83;;;25.50;99.90;;;;;;4983333;28;20445;-82
2022/08/02 06:10:04;;;;;;;8.37;4.50;;;25.90;99.10;;;;;;4998643;28;20474;-81
2022/08/02 06:12:41;;;;;;;13.80;6.10;;;26.40;97.60;;;;;;4998461;28;20505;-82
2022/08/02 06:15:08;;;;;;;8.03;5.30;;;26.80;96.10;;;;;;4992553;28;20466;-82
2022/08/02 06:17:35;;;;;;;13.00;5.90;;;26.80;95.60;;;;;;5002759;28;20436;-81
2022/08/02 06:20:03;;;;;;;6.77;4.90;;;27.00;94.80;;;;;;4987174;28;20444;-81
2022/08/02 06:22:31;;;;;;;5.50;4.40;;;27.30;93.40;;;;;;4990524;28;20452;-81
2022/08/02 06:24:59;;;;;;;7.23;5.17;;;27.00;93.20;;;;;;4986714;28;20467;-82
2022/08/02 06:27:27;;;;;;;5.27;4.77;;;26.90;93.30;;;;;;4975646;28;20451;-82
2022/08/02 06:29:56;;;;;;;6.20;4.73;;;26.50;94.20;;;;;;4978080;28;20897;-82
2022/08/02 06:32:22;;;;;;;7.10;5.10;;;26.90;93.80;;;;;;4994769;28;20441;-82
2022/08/02 06:34:49;;;;;;;7.63;4.77;;;27.30;93.10;;;;;;4990336;28;20478;-82
2022/08/02 06:37:32;;;;;;;5.30;4.60;;;27.60;92.20;;;;;;4986625;28;20449;-83
2022/08/02 06:40:05;;;;;;;7.63;4.67;;;28.00;90.60;;;;;;4988413;28;20455;-82
2022/08/02 06:42:44;;;;;;;5.17;4.67;;;28.10;90.40;;;;;;4997949;28;20502;-82
2022/08/02 06:45:12;;;;;;;5.00;4.60;;;28.50;88.50;;;;;;4990253;28;20452;-82
2022/08/02 06:47:38;;;;;;;5.27;4.47;;;29.00;86.50;;;;;;4977697;28;20435;-82
2022/08/02 06:50:06;;;;;;;6.03;5.17;;;29.20;84.60;;;;;;4979051;28;20959;-82
2022/08/02 06:52:35;;;;;;;5.60;4.40;;;29.00;84.50;;;;;;4979116;28;20438;-82
2022/08/02 06:55:03;;;;;;;7.23;4.53;;;29.10;83.50;;;;;;4988944;28;20470;-82
2022/08/02 06:57:30;;;;;;;6.13;4.97;;;29.00;82.40;;;;;;4989117;28;20435;-83
2022/08/02 07:00:00;;;;;;;7.00;5.23;;;29.00;83.10;;;;;;4993065;23;20490;-85
2022/08/02 07:02:28;;;;;;;6.40;5.10;;;28.70;82.80;;;;;;4959061;29;20442;-84
2022/08/02 07:04:55;;;;;;;8.97;5.27;;;28.10;85.00;;;;;;4958851;29;20445;-85
2022/08/02 07:07:22;;;;;;;4.80;4.27;;;28.00;85.80;;;;;;4957827;29;20453;-83
2022/08/02 07:09:50;;;;;;;6.30;3.87;;;28.20;86.70;;;;;;4955888;28;20509;-83
2022/08/02 07:12:16;;;;;;;7.53;4.40;;;29.10;83.90;;;;;;4956225;28;20463;-83
2022/08/02 07:14:43;;;;;;;7.43;4.40;;;29.80;81.10;;;;;;4955887;29;20471;-83
2022/08/02 07:17:10;;;;;;;4.90;4.40;;;30.70;77.50;;;;;;4955653;28;20446;-83
2022/08/02 07:19:38;;;;;;;5.20;4.70;;;30.90;74.40;;;;;;4955447;28;20978;-83
2022/08/02 07:22:05;;;;;;;4.93;4.00;;;31.10;73.40;;;;;;4958204;28;21121;-82
2022/08/02 07:24:32;;;;;;;5.50;3.80;;;30.60;73.40;;;;;;4966587;29;20486;-82
2022/08/02 07:26:59;;;;;;;5.10;4.60;;;30.70;72.80;;;;;;4961025;29;20450;-83
2022/08/02 07:29:26;;;;;;;6.87;5.20;;;31.00;70.80;;;;;;4956870;28;21024;-83
2022/08/02 07:31:53;;;;;;;8.03;4.87;;;31.90;70.10;;;;;;4963782;28;20439;-83
2022/08/02 07:34:19;;;;;;;6.90;4.83;;;32.10;66.80;;;;;;4957637;29;20437;-83
2022/08/02 07:36:48;;;;;;;9.07;4.90;;;32.20;66.50;;;;;;4956663;29;20446;-82
2022/08/02 07:39:15;;;;;;;6.00;4.60;;;33.30;62.60;;;;;;4957116;28;21184;-84
2022/08/02 07:41:41;;;;;;;5.10;4.67;;;33.90;59.50;;;;;;4956373;29;20515;-83
2022/08/02 07:44:08;;;;;;;7.70;5.13;;;33.30;59.20;;;;;;4955459;29;20491;-84
2022/08/02 07:46:35;;;;;;;8.53;4.90;;;32.40;61.40;;;;;;4956675;29;20817;-85
2022/08/02 07:49:01;;;;;;;6.63;4.90;;;32.80;61.40;;;;;;4956370;28;20474;-83
2022/08/02 07:51:30;;;;;;;5.23;4.53;;;32.70;60.30;;;;;;4955811;29;20520;-83
2022/08/02 07:53:58;;;;;;;6.00;5.07;;;33.20;59.20;;;;;;4956727;29;20981;-82
2022/08/02 07:56:25;;;;;;;7.37;4.40;;;33.40;58.20;;;;;;4957074;28;20448;-83
2022/08/02 07:58:51;;;;;;;4.43;4.03;;;33.70;57.60;;;;;;4971846;28;20464;-82
2022/08/02 08:01:18;;;;;;;4.93;4.50;;;34.30;56.50;;;;;;4972831;29;20479;-81
2022/08/02 08:03:45;;;;;;;5.50;4.63;;;34.70;55.00;;;;;;4972457;29;20474;-82
2022/08/02 08:06:12;;;;;;;6.70;4.70;;;35.00;54.30;;;;;;4969355;28;20443;-82
2022/08/02 08:08:38;;;;;;;5.87;5.10;;;35.50;53.20;;;;;;4969240;28;20447;-86
2022/08/02 08:11:06;;;;;;;5.27;4.53;;;36.20;52.10;;;;;;4971085;29;20448;-87
2022/08/02 08:13:33;;;;;;;5.57;5.07;;;36.50;51.20;;;;;;4956469;29;20526;-84
2022/08/02 08:16:01;;;;;;;5.47;4.60;;;36.60;50.00;;;;;;4959145;29;20445;-84
2022/08/02 08:18:27;;;;;;;4.80;4.40;;;37.20;48.80;;;;;;4956296;28;20483;-84
2022/08/02 08:20:54;;;;;;;4.73;4.33;;;37.40;47.80;;;;;;4955780;28;20457;-84
2022/08/02 08:23:21;;;;;;;5.13;4.73;;;37.30;47.40;;;;;;4956048;28;20480;-84
2022/08/02 08:25:48;;;;;;;5.50;4.60;;;37.00;47.10;;;;;;4954659;29;20829;-84
2022/08/02 08:28:16;;;;;;;5.37;4.87;;;37.80;47.00;;;;;;4953991;28;20456;-86
2022/08/02 08:30:42;;;;;;;5.03;4.53;;;38.70;45.60;;;;;;4955671;29;20881;-85
2022/08/02 08:33:09;;;;;;;5.33;3.60;;;38.80;44.60;;;;;;4955433;29;20973;-86
2022/08/02 08:35:36;;;;;;;4.00;3.63;;;39.50;44.00;;;;;;4948492;28;20438;-86
2022/08/02 08:38:03;;;;;;;4.57;3.87;;;39.80;42.40;;;;;;4958038;29;20445;-84
2022/08/02 08:40:30;;;;;;;5.60;4.10;;;39.40;42.60;;;;;;4962877;29;20512;-85
2022/08/02 08:42:57;;;;;;;5.07;4.40;;;38.40;42.90;;;;;;4960994;28;21139;-84
2022/08/02 08:45:25;;;;;;;5.63;4.27;;;38.30;44.00;;;;;;4955385;29;20515;-84
2022/08/02 08:48:00;;;;;;;5.17;4.57;;;39.00;43.50;;;;;;4965346;29;20456;-85
2022/08/02 08:50:30;;;;;;;4.33;3.93;;;39.30;42.40;;;;;;4967929;28;20456;-83
2022/08/02 08:53:02;;;;;;;3.83;3.53;;;40.50;41.30;;;;;;4951698;28;20469;-84
2022/08/02 08:55:30;;;;;;;4.13;3.83;;;40.40;41.10;;;;;;4949091;29;20485;-86
2022/08/02 08:57:58;;;;;;;6.37;4.00;;;40.50;40.40;;;;;;4949836;28;20957;-84
2022/08/02 09:00:27;;;;;;;6.03;4.20;;;41.00;40.10;;;;;;4950863;28;20528;-85
2022/08/02 09:02:54;;;;;;;11.63;5.20;;;40.80;39.40;;;;;;4953518;29;20457;-85
2022/08/02 09:05:21;;;;;;;4.97;4.47;;;40.50;39.30;;;;;;4952899;28;20481;-85
2022/08/02 09:07:48;;;;;;;7.50;5.07;;;41.20;38.90;;;;;;4953883;29;20450;-85
2022/08/02 09:10:34;;;;;;;6.73;4.47;;;40.70;38.40;;;;;;4953375;28;20480;-82
2022/08/02 09:13:14;;;;;;;4.13;3.73;;;41.10;38.90;;;;;;4958468;29;20441;-86
2022/08/02 09:15:44;;;;;;;4.70;4.30;;;41.60;37.80;;;;;;4954047;29;20445;-85
2022/08/02 09:18:12;;;;;;;5.70;4.40;;;42.10;37.30;;;;;;4954266;28;20446;-86
2022/08/02 09:20:56;;;;;;;5.07;4.60;;;41.90;37.10;;;;;;4952523;29;20443;-86
2022/08/02 09:23:23;;;;;;;5.13;4.73;;;42.60;35.70;;;;;;4955692;29;20449;-86
2022/08/02 09:26:07;;;;;;;6.43;5.93;;;43.00;35.00;;;;;;4953929;29;20438;-88
2022/08/02 09:35:50;;;;;;;5.40;5.00;;;40.30;36.00;;;;;;4914493;29;20831;-91
2022/08/02 09:55:08;;;;;;;5.60;5.13;;;40.80;37.90;;;;;;4887486;29;20475;-86
2022/08/02 09:58:19;;;;;;;5.40;4.90;;;42.10;36.10;;;;;;4979756;28;20511;-89
2022/08/02 10:00:54;;;;;;;5.50;5.00;;;42.60;34.50;;;;;;4959963;29;20493;-82
2022/08/02 10:03:21;;;;;;;6.00;5.53;;;41.20;36.30;;;;;;4958132;28;20489;-83
2022/08/02 10:05:50;;;;;;;5.00;4.60;;;40.50;36.50;;;;;;4959023;29;20508;-83
2022/08/02 10:08:17;;;;;;;5.23;4.73;;;41.30;36.70;;;;;;4958569;29;20462;-84
2022/08/02 10:10:46;;;;;;;5.73;4.30;;;42.10;35.60;;;;;;4956400;29;20458;-84
2022/08/02 10:13:15;;;;;;;4.67;4.17;;;43.00;34.50;;;;;;4958208;28;20443;-85
2022/08/02 10:15:44;;;;;;;4.47;4.10;;;44.00;33.10;;;;;;4948163;29;20457;-85
2022/08/02 10:18:13;;;;;;;3.90;3.60;;;44.70;32.20;;;;;;4945592;29;20466;-85
2022/08/02 10:20:44;;;;;;;4.67;4.27;;;44.20;31.50;;;;;;4939596;29;20461;-87
2022/08/02 10:23:13;;;;;;;5.30;4.60;;;43.40;32.70;;;;;;4940461;29;20514;-85
2022/08/02 10:25:42;;;;;;;5.40;4.10;;;43.10;32.60;;;;;;4939027;29;20490;-84
2022/08/02 10:28:12;;;;;;;4.50;4.10;;;43.70;32.80;;;;;;4956920;29;20482;-84
2022/08/02 10:30:42;;;;;;;5.70;4.30;;;44.90;31.70;;;;;;4945558;29;20451;-85
2022/08/02 10:33:10;;;;;;;4.17;3.93;;;45.40;30.10;;;;;;4947656;29;20454;-84
2022/08/02 10:35:40;;;;;;;4.90;4.40;;;45.50;29.40;;;;;;4975935;28;20436;-83
2022/08/02 10:38:10;;;;;;;4.73;4.43;;;44.20;30.40;;;;;;4964046;28;20445;-83
2022/08/02 10:40:44;;;;;;;4.37;3.97;;;43.50;31.50;;;;;;4962141;28;20445;-84
2022/08/02 10:43:12;;;;;;;5.60;5.10;;;43.50;30.90;;;;;;4964421;28;20951;-84
2022/08/02 10:45:39;;;;;;;4.20;3.90;;;41.70;33.00;;;;;;4973493;28;20517;-83
2022/08/02 10:48:10;;;;;;;4.70;4.30;;;41.70;33.10;;;;;;4966624;28;20446;-83
2022/08/02 10:50:53;;;;;;;4.30;4.00;;;42.00;33.00;;;;;;4970770;28;20438;-83
2022/08/02 10:53:25;;;;;;;4.13;3.80;;;43.20;31.20;;;;;;4965110;28;20806;-84
2022/08/02 10:55:52;;;;;;;5.80;4.30;;;43.90;30.50;;;;;;4960412;28;20472;-86
2022/08/02 10:58:21;;;;;;;4.33;3.90;;;44.50;29.60;;;;;;4978857;28;20432;-83
2022/08/02 11:00:49;;;;;;;4.70;3.70;;;44.70;29.30;;;;;;4981202;28;20441;-83
2022/08/02 11:03:41;;;;;;;3.83;3.53;;;44.20;29.50;;;;;;4985500;28;20448;-83
2022/08/02 11:06:10;;;;;;;4.30;3.90;;;44.70;29.30;;;;;;4956525;28;20489;-82
2022/08/02 11:08:37;;;;;;;3.77;3.47;;;43.80;29.30;;;;;;4963690;28;20461;-84
2022/08/02 11:11:17;;;;;;;4.70;4.40;;;44.50;29.60;;;;;;4963003;28;20502;-85
2022/08/02 11:14:02;;;;;;;3.60;3.23;;;44.10;29.80;;;;;;4959029;28;20532;-86
2022/08/02 11:17:04;;;;;;;5.33;3.37;;;43.70;30.00;;;;;;4966390;28;20960;-86
2022/08/02 11:19:31;;;;;;;4.83;3.73;;;43.20;29.80;;;;;;4966318;28;20476;-87
2022/08/02 11:22:02;;;;;;;5.57;3.10;;;42.80;30.00;;;;;;4971330;28;20453;-83
2022/08/02 11:24:30;;;;;;;4.07;3.70;;;42.60;30.40;;;;;;4983273;28;20473;-84
2022/08/02 11:26:59;;;;;;;5.47;4.43;;;41.80;31.80;;;;;;4959848;28;20454;-86
2022/08/02 11:29:39;;;;;;;4.17;3.77;;;42.60;30.50;;;;;;4961240;28;21202;-86
2022/08/02 11:32:08;;;;;;;4.30;4.00;;;43.20;30.20;;;;;;4954865;28;20452;-86
2022/08/02 11:34:40;;;;;;;4.07;3.70;;;42.90;30.20;;;;;;4962010;28;20437;-85
2022/08/02 11:37:07;;;;;;;3.67;3.37;;;43.60;30.00;;;;;;4959559;28;20433;-87
2022/08/02 11:39:33;;;;;;;4.20;3.90;;;44.70;28.90;;;;;;4956550;28;20502;-86
2022/08/02 11:42:00;;;;;;;7.50;3.13;;;45.40;28.70;;;;;;4963811;28;20450;-85
2022/08/02 11:44:29;;;;;;;5.50;4.60;;;45.80;28.00;;;;;;4962616;28;20492;-85
2022/08/02 11:47:00;;;;;;;3.90;3.50;;;46.00;27.80;;;;;;4967275;28;20436;-85
2022/08/02 11:49:27;;;;;;;4.10;3.70;;;47.40;26.80;;;;;;4956808;28;20480;-85
2022/08/02 11:52:05;;;;;;;4.20;3.90;;;48.10;26.20;;;;;;4961807;28;20453;-87
2022/08/02 11:54:34;;;;;;;4.30;3.93;;;49.00;25.60;;;;;;4966635;28;20449;-86
2022/08/02 11:57:18;;;;;;;4.43;4.13;;;48.70;25.20;;;;;;4956956;28;20439;-85
2022/08/02 11:59:46;;;;;;;3.60;3.40;;;48.70;25.20;;;;;;4964599;28;20468;-84
2022/08/02 12:02:16;;;;;;;4.00;3.70;;;48.70;25.10;;;;;;4956431;28;20451;-85
2022/08/02 12:04:43;;;;;;;4.00;3.70;;;49.10;24.70;;;;;;4959300;28;20485;-85
2022/08/02 12:07:10;;;;;;;3.80;3.60;;;49.50;24.10;;;;;;4960974;28;20848;-85
2022/08/02 12:09:37;;;;;;;3.93;3.63;;;47.20;25.40;;;;;;4966135;28;20473;-85
2022/08/02 12:12:04;;;;;;;4.10;3.80;;;46.50;26.10;;;;;;4963157;28;20445;-85
2022/08/02 12:14:32;;;;;;;5.00;4.07;;;45.80;26.80;;;;;;4957069;28;20437;-84
2022/08/02 12:19:46;;;;;;;4.87;4.37;;;43.90;27.80;;;;;;4959992;28;20458;-84
2022/08/02 12:22:16;;;;;;;4.50;4.10;;;41.90;29.50;;;;;;4954533;28;20457;-84
2022/08/02 12:24:46;;;;;;;4.87;4.33;;;41.00;31.00;;;;;;4959616;28;20488;-84
2022/08/02 12:27:29;;;;;;;4.03;3.73;;;39.30;32.60;;;;;;4968865;28;20931;-84
2022/08/02 12:30:00;;;;;;;5.87;4.60;;;37.30;35.30;;;;;;4973759;28;20467;-85
2022/08/02 12:32:27;;;;;;;4.23;3.93;;;35.90;37.40;;;;;;4981051;28;20448;-84
2022/08/02 12:35:19;;;;;;;4.03;3.73;;;35.30;38.70;;;;;;4982138;28;20444;-84
2022/08/02 12:37:49;;;;;;;5.80;3.70;;;35.00;39.00;;;;;;4943705;28;20475;-85
2022/08/02 12:40:30;;;;;;;4.53;4.20;;;35.40;39.30;;;;;;4966453;28;20463;-85
2022/08/02 12:42:58;;;;;;;4.50;4.10;;;38.20;35.90;;;;;;4963085;28;20444;-85
2022/08/02 12:45:26;;;;;;;3.90;3.37;;;40.40;32.60;;;;;;4963309;29;20510;-85
2022/08/02 12:47:56;;;;;;;4.10;3.70;;;42.10;30.90;;;;;;4956849;29;20461;-85
2022/08/02 12:53:42;;;;;;;3.90;3.60;;;43.40;28.80;;;;;;4973196;28;20448;-86
2022/08/02 12:56:12;;;;;;;4.70;4.30;;;42.00;29.30;;;;;;4965978;28;20460;-86
2022/08/02 12:58:48;;;;;;;4.03;3.63;;;42.20;29.80;;;;;;4958215;28;20473;-85
2022/08/02 13:01:21;;;;;;;4.13;3.73;;;41.60;29.60;;;;;;5002678;23;20503;-83
2022/08/02 13:03:47;;;;;;;5.10;4.10;;;41.40;29.90;;;;;;4975693;28;20444;-85
2022/08/02 13:06:16;;;;;;;3.80;3.50;;;41.30;30.20;;;;;;4976084;28;20522;-87
2022/08/02 13:08:44;;;;;;;3.47;3.27;;;40.70;30.80;;;;;;4981558;28;20452;-82
2022/08/02 13:11:10;;;;;;;4.20;3.90;;;41.10;30.70;;;;;;4985501;28;20495;-84
2022/08/02 13:13:37;;;;;;;3.90;3.50;;;40.70;30.70;;;;;;4984642;28;20476;-88
2022/08/02 13:16:05;;;;;;;3.53;3.33;;;42.30;29.90;;;;;;4983232;28;20471;-83
2022/08/02 13:18:31;;;;;;;3.50;3.20;;;41.70;29.60;;;;;;4979881;28;20484;-83
2022/08/02 13:20:58;;;;;;;3.77;3.40;;;41.60;29.90;;;;;;4976773;28;20467;-84
2022/08/02 13:23:26;;;;;;;3.90;3.60;;;41.80;29.80;;;;;;4979512;28;20987;-84
2022/08/02 13:25:53;;;;;;;4.00;3.70;;;41.50;29.80;;;;;;4975355;28;20441;-84
2022/08/02 13:28:20;;;;;;;3.60;3.40;;;40.40;30.20;;;;;;4976489;28;20509;-84
2022/08/02 13:30:47;;;;;;;3.93;3.67;;;39.40;32.20;;;;;;4976162;28;20997;-84
2022/08/02 13:33:14;;;;;;;3.80;3.50;;;40.10;31.70;;;;;;4975832;28;20471;-82